Ron Brown — WTEC — position and weather

sailwx.info

Track history (hours):
 
Tides and Currents Weather Stations Pressure Air Temp Water Temp Dewpoint Dewpoint Depression Visibility Wind Speed Wind Dir Waves Ship Positions

Oceanographic research ship Ron Brown (USA)

Detailed information on ship capabilities available from University of Delaware's Ocean Information Center.

Owner: UNIVERSITY OF SOUTHERN CALIFORNIA, TERMINAL ISLAND, CA. More information available from US FCC via Universal Licensing System and Coast Guard Vessel Documentation Center.

Last reported at 2019-Dec-10 22:00 UTC. Time now 2019-Dec-11 11:07 UTC.
Position N 26°30' W 075°30'.

Type: Ship. MMSI: 368996000.

Wind from 130 at 13 knots

Barometer 1020.8 mb
Water temperature 24.9 ° C

Date/timePositionNaut miles runAvg speedWind from/ knotsBaromVisibWave heightAir tempDewpointWater temp
2019-Dec-10 22:00N 26°30' W 075°30'0 0.0 130 / 131020.8 24.9
2019-Dec-10 20:00N 26°30' W 075°30'0 0.0 130 / 171020.6 25.0
2019-Dec-10 19:00N 26°30' W 075°30'5 5.4 130 / 151020.6 25.1
2019-Dec-10 18:00N 26°30' W 075°36'5 5.4 140 / 181020.7 25.1
2019-Dec-10 17:00N 26°30' W 075°42'0 0.0 130 / 161021.6 25.2
2019-Dec-10 16:00N 26°30' W 075°42'0 0.0 130 / 131022.4 25.2
2019-Dec-10 14:00N 26°30' W 075°42'5 5.4 130 / 141022.7 25.1
2019-Dec-10 13:00N 26°30' W 075°48'5 5.4 130 / 201021.7 24.9
2019-Dec-10 12:00N 26°30' W 075°54'0 0.0 120 / 181021.5 24.9
2019-Dec-10 11:00N 26°30' W 075°54'0 0.0 120 / 161020.9 24.9
2019-Dec-10 10:00N 26°30' W 075°54'11 5.4 150 / 171020.5 24.9
2019-Dec-10 08:00N 26°30' W 076°06'0 0.0 110 / 91020.6 24.7
2019-Dec-10 07:00N 26°30' W 076°06'0 0.0 130 / 121021.1 24.7
2019-Dec-10 06:00N 26°30' W 076°06'0 0.0 130 / 121021.2 24.7
2019-Dec-10 05:00N 26°30' W 076°06'0 0.0 130 / 131021.4 24.7
2019-Dec-10 04:00N 26°30' W 076°06'0 0.0 130 / 151021.8 24.8
2019-Dec-10 03:00N 26°30' W 076°06'0 0.0 140 / 151021.8 24.7
2019-Dec-10 02:00N 26°30' W 076°06'0 0.0 130 / 141021.6 24.8
2019-Dec-10 01:00N 26°30' W 076°06'0 0.0 130 / 151021.2 24.7
2019-Dec-10 00:00N 26°30' W 076°06'0 0.0 140 / 151020.8 24.8
2019-Dec-09 23:00N 26°30' W 076°06'5 5.4 140 / 191020.1 24.8
2019-Dec-09 22:00N 26°30' W 076°12'0 0.0 150 / 111020.0 24.8
2019-Dec-09 21:00N 26°30' W 076°12'0 0.0 140 / 111019.4 24.9
2019-Dec-09 20:00N 26°30' W 076°12'0 0.0 140 / 151019.5 24.9
2019-Dec-09 19:00N 26°30' W 076°12'0 0.0 140 / 181019.6 24.9
2019-Dec-09 18:00N 26°30' W 076°12'1110.7 140 / 171019.8 24.9
2019-Dec-09 17:00N 26°30' W 076°24'5 5.4 140 / 161020.6 25.2
2019-Dec-09 16:00N 26°30' W 076°18'0 0.0 150 / 141021.8 25.2
2019-Dec-09 15:00N 26°30' W 076°18'0 0.0 150 / 151022.0 25.1
2019-Dec-09 14:00N 26°30' W 076°18'5 5.4 140 / 101022.0 25.1
2019-Dec-09 13:00N 26°30' W 076°24'5 5.4 140 / 181021.4 25.1
2019-Dec-09 12:00N 26°30' W 076°30'0 0.0 140 / 121021.0 25.1
2019-Dec-09 11:00N 26°30' W 076°30'0 0.0 140 / 121020.3 25.1
2019-Dec-09 10:00N 26°30' W 076°30'0 0.0 120 / 141019.7 25.1
2019-Dec-09 09:00N 26°30' W 076°30'0 0.0 110 / 71019.9 25.0
2019-Dec-09 08:00N 26°30' W 076°30'0 0.0 120 / 111019.8 25.0
2019-Dec-09 07:00N 26°30' W 076°30'0 0.0 130 / 111020.1 25.0
2019-Dec-09 06:00N 26°30' W 076°30'0 0.0 140 / 101020.4 25.0
2019-Dec-09 05:00N 26°30' W 076°30'0 0.0 130 / 131020.8 25.1
2019-Dec-09 04:00N 26°30' W 076°30'0 0.0 150 / 51021.3 25.2
2019-Dec-09 03:00N 26°30' W 076°30'0 0.0 120 / 111021.4 25.2
2019-Dec-09 02:00N 26°30' W 076°30'0 0.0 120 / 131021.2 25.2
2019-Dec-09 01:00N 26°30' W 076°30'5 5.4 100 / 111021.3 25.2
2019-Dec-09 00:00N 26°30' W 076°36'1110.7 100 / 131020.8 25.1
2019-Dec-08 23:00N 26°30' W 076°48'0 0.0 100 / 121020.7 25.3
2019-Dec-08 22:00N 26°30' W 076°48'0 0.0 110 / 131020.3 25.3
2019-Dec-08 21:00N 26°30' W 076°48'0 0.0 080 / 131020.1 25.4
2019-Dec-08 20:00N 26°30' W 076°48'0 0.0 060 / 101019.8 25.4
2019-Dec-08 19:00N 26°30' W 076°48'5 5.4 060 / 111019.7 25.3
2019-Dec-08 18:00N 26°30' W 076°42'5 5.4 040 / 161020.0 25.3
2019-Dec-08 17:00N 26°30' W 076°36'0 0.0 050 / 141020.6 25.3
2019-Dec-08 16:00N 26°30' W 076°36'0 0.0 050 / 161021.4 25.3
2019-Dec-08 15:00N 26°30' W 076°36'0 0.0 040 / 151022.0 25.3
2019-Dec-08 13:00N 26°30' W 076°36'5 5.4 030 / 141021.2 25.2
2019-Dec-08 12:00N 26°30' W 076°42'0 0.0 040 / 131020.9 25.2
2019-Dec-08 11:00N 26°30' W 076°42'0 0.0 050 / 121020.4 25.2
2019-Dec-08 10:00N 26°30' W 076°42'0 0.0 060 / 131019.8 25.3
2019-Dec-08 09:00N 26°30' W 076°42'0 0.0 030 / 131019.6 25.3
2019-Dec-08 08:00N 26°30' W 076°42'0 0.0 050 / 151019.6 25.3
2019-Dec-08 07:00N 26°30' W 076°42'0 0.0 050 / 131019.8 25.3
2019-Dec-08 06:00N 26°30' W 076°42'0 0.0 040 / 141019.9 25.3
2019-Dec-08 05:00N 26°30' W 076°42'0 0.0 050 / 191019.9 25.3
2019-Dec-08 04:00N 26°30' W 076°42'0 0.0 040 / 161020.2 25.3
2019-Dec-08 03:00N 26°30' W 076°42'0 0.0 030 / 71020.5 25.3
2019-Dec-08 02:00N 26°30' W 076°42'0 0.0 030 / 111020.4 25.4
2019-Dec-08 01:00N 26°30' W 076°42'0 0.0 030 / 71020.4 25.4
2019-Dec-08 00:00N 26°30' W 076°42'0 0.0 010 / 101020.2 25.4
2019-Dec-07 23:00N 26°30' W 076°42'5 5.4 350 / 81019.8 25.5
2019-Dec-07 22:00N 26°30' W 076°48'0 0.0 020 / 111019.3 25.8
2019-Dec-07 21:00N 26°30' W 076°48'0 0.0 360 / 101019.0 25.8
2019-Dec-07 20:00N 26°30' W 076°48'0 0.0 300 / 81019.0 25.9
2019-Dec-07 19:00N 26°30' W 076°48'0 0.0 270 / 101019.0 23.1
2019-Dec-07 18:00N 26°30' W 076°48'0 0.0 280 / 101019.2 25.9
2019-Dec-07 17:00N 26°30' W 076°48'0 0.0 290 / 91019.8 25.8
2019-Dec-07 16:00N 26°30' W 076°48'5 5.4 310 / 81020.6 25.8
2019-Dec-07 15:00N 26°30' W 076°54'0 0.0 300 / 91021.3 25.8
2019-Dec-07 14:00N 26°30' W 076°54'1212.0 280 / 91021.4 25.8
2019-Dec-07 13:00N 26°18' W 076°54'8 8.1 330 / 81020.6 25.7
2019-Dec-07 12:00N 26°12' W 077°00'1313.2 1020.2 25.8
2019-Dec-07 11:00N 26°00' W 077°06'1313.2 320 / 41019.7 25.9
2019-Dec-07 10:00N 25°48' W 077°12'1212.4 350 / 61019.4 25.8
2019-Dec-07 09:00N 25°54' W 077°24'1212.3 020 / 51019.2 26.3
2019-Dec-07 08:00N 26°00' W 077°36'1212.3 340 / 21019.2 26.2
2019-Dec-07 07:00N 26°06' W 077°48'1110.8 280 / 31019.7 25.9
2019-Dec-07 06:00N 26°06' W 078°00'1212.3 240 / 21020.2 26.1
2019-Dec-07 05:00N 26°12' W 078°12'1212.3 280 / 31021.1 26.1
2019-Dec-07 04:00N 26°18' W 078°24'1616.1 230 / 31021.7 26.2
2019-Dec-07 03:00N 26°30' W 078°36'8 8.1 1021.7 26.3
2019-Dec-07 02:00N 26°24' W 078°42'0 0.0 350 / 41021.6 26.3
2019-Dec-07 01:00N 26°24' W 078°42'6 6.0 240 / 21021.5 26.3
2019-Dec-07 00:00N 26°18' W 078°42'8 8.1 270 / 31021.4 26.4
2019-Dec-06 23:00N 26°12' W 078°48'0 0.0 160 / 61021.0 26.6
2019-Dec-06 22:00N 26°12' W 078°48'0 0.0 140 / 61020.6 27.0
2019-Dec-06 21:00N 26°12' W 078°48'6 6.0 150 / 61020.2 27.0
2019-Dec-06 20:00N 26°06' W 078°48'8 8.1 160 / 91019.8 26.9
2019-Dec-06 19:00N 26°00' W 078°54'1212.3 180 / 101019.4 26.9
2019-Dec-06 18:00N 26°06' W 079°06'8 8.1 150 / 131019.8 27.2
2019-Dec-06 17:00N 26°00' W 079°12'5 5.4 150 / 91021.0 27.3
2019-Dec-06 16:00N 26°00' W 079°18'5 5.4 130 / 91022.0 27.4
2019-Dec-06 15:00N 26°00' W 079°24'0 0.0 100 / 91022.2 27.4
2019-Dec-06 14:00N 26°00' W 079°24'6 5.6 130 / 121021.9 27.4
2019-Dec-06 13:00N 26°03' W 079°29'3200.7
2019-Dec-06 13:00N 26°06' W 079°30'3 6.4 140 / 101021.5 27.4
2019-Dec-06 12:30N 26°03' W 079°29'3 6.3
2019-Dec-06 12:00N 26°00' W 079°30'3439.7 100 / 111021.2 27.4
2019-Dec-06 11:59N 26°03' W 079°29'5 4.8
2019-Dec-06 11:01N 26°03' W 079°34'3185.7
2019-Dec-06 11:00N 26°06' W 079°36'0 0.0 110 / 51020.8 27.5
2019-Dec-06 10:00N 26°06' W 079°36'5 5.4 110 / 71019.6 27.6
2019-Dec-06 09:00N 26°06' W 079°42'5 5.4 090 / 81020.0 27.6
2019-Dec-06 08:00N 26°06' W 079°48'4 3.6 080 / 101020.0 27.4
2019-Dec-06 07:01N 26°03' W 079°46'3191.3
2019-Dec-06 07:00N 26°00' W 079°48'4 8.7 070 / 121020.3 27.4
2019-Dec-06 06:31N 26°03' W 079°51'4 8.1
2019-Dec-06 06:00N 26°00' W 079°54'0 0.0 060 / 101020.4 26.6
2019-Dec-06 05:00N 26°00' W 079°54'5 9.5 340 / 51020.7 27.3
2019-Dec-06 04:30N 26°03' W 079°58'4 6.9
2019-Dec-06 04:00N 26°06' W 080°00'0 0.0 320 / 31021.2 26.7
2019-Dec-06 03:00N 26°06' W 080°00'5 5.4 320 / 121021.1 26.2
2019-Dec-06 02:01N 26°03' W 080°05'3197.0
2019-Dec-06 02:00N 26°00' W 080°06'918.2 330 / 121021.2 26.0
2019-Dec-06 01:30N 26°08' W 080°03'4 8.6
2019-Dec-06 01:00N 26°12' W 080°00'1212.0 350 / 121020.7 26.1
2019-Dec-06 00:00N 26°24' W 080°00'1212.0 340 / 101020.3 26.1
2019-Dec-05 23:00N 26°36' W 080°00'612.9 010 / 101019.8 26.8
2019-Dec-05 22:30N 26°42' W 079°59'611.7
2019-Dec-05 22:00N 26°48' W 080°00'6 6.0 340 / 141019.5 26.2
2019-Dec-05 21:00N 26°54' W 080°00'6 6.0 330 / 111018.9 26.2
2019-Dec-05 20:00N 27°00' W 080°00'1 1.3 330 / 141018.7 25.7
2019-Dec-05 19:30N 26°60' W 080°01'611.6
2019-Dec-05 19:00N 27°00' W 079°54'2 3.8 010 / 131018.3 26.2
2019-Dec-05 18:30N 26°60' W 079°56'2 3.6
2019-Dec-05 18:00N 27°00' W 079°54'2 3.6 340 / 171018.5 26.5
2019-Dec-05 17:31N 26°60' W 079°52'4 7.0
2019-Dec-05 17:00N 27°00' W 079°48'0 0.0 340 / 171019.1 26.7
2019-Dec-05 16:00N 27°00' W 079°48'5 5.3 320 / 91019.7 26.8
2019-Dec-05 15:00N 27°00' W 079°42'0 0.0 320 / 131019.5 26.7
2019-Dec-05 14:00N 27°00' W 079°42'5 5.3 010 / 121019.2 27.2
2019-Dec-05 13:00N 27°00' W 079°36'0 0.0 310 / 61018.2 27.2
2019-Dec-05 12:00N 27°00' W 079°36'5 5.3 340 / 161017.3 27.4
2019-Dec-05 11:00N 27°00' W 079°30'5 5.3 280 / 111016.8 27.3
2019-Dec-05 10:00N 27°00' W 079°24'0 0.0 340 / 241015.8 27.4
2019-Dec-05 09:00N 27°00' W 079°24'5 5.3 250 / 51015.9 27.3
2019-Dec-05 08:00N 27°00' W 079°18'0 0.0 310 / 181015.2 27.4
2019-Dec-05 07:00N 27°00' W 079°18'5 5.3 310 / 151015.0 27.4
2019-Dec-05 06:00N 27°00' W 079°12'6 6.0 290 / 181015.3 27.3
2019-Dec-05 05:00N 27°06' W 079°12'6 6.0 270 / 131015.6 27.4
2019-Dec-05 04:00N 27°12' W 079°12'1313.1 290 / 161015.7 27.4
2019-Dec-05 03:00N 27°24' W 079°18'1212.0 270 / 191015.7 27.3
2019-Dec-05 02:00N 27°36' W 079°18'1212.0 310 / 131015.2 27.0
2019-Dec-05 01:00N 27°48' W 079°18'1212.0 280 / 161014.8 26.9
2019-Dec-05 00:00N 28°00' W 079°18'1212.0 310 / 151014.6 26.7
2019-Dec-04 23:00N 28°12' W 079°18'1212.0 290 / 191014.0 27.0
2019-Dec-04 22:00N 28°24' W 079°18'6 6.0 320 / 131013.4 27.0
2019-Dec-04 21:00N 28°30' W 079°18'0 0.0 260 / 61012.9 27.0
2019-Dec-04 20:00N 28°30' W 079°18'6 6.0 300 / 191012.5 27.1
2019-Dec-04 19:00N 28°36' W 079°18'1212.0 320 / 171012.6 27.1
2019-Dec-04 18:00N 28°48' W 079°18'1212.0 310 / 211012.5 27.2
2019-Dec-04 17:00N 29°00' W 079°18'1212.0 320 / 161013.2 27.3
2019-Dec-04 16:00N 29°12' W 079°18'1313.1 310 / 191013.6 26.7
2019-Dec-04 15:00N 29°24' W 079°24'6 6.0 320 / 141013.3 26.0
2019-Dec-04 14:00N 29°30' W 079°24'6 6.0 290 / 221012.6 26.2
2019-Dec-04 13:00N 29°36' W 079°24'1212.0 340 / 221012.4 26.7
2019-Dec-04 12:00N 29°48' W 079°24'1212.0 310 / 201011.7 26.9
2019-Dec-04 11:00N 30°00' W 079°24'1212.0 290 / 201010.5 26.8
2019-Dec-04 10:00N 30°12' W 079°24'1212.0 280 / 231009.7 26.5
2019-Dec-04 09:00N 30°24' W 079°24'1212.0 320 / 161009.6 26.1
2019-Dec-04 08:00N 30°36' W 079°24'1313.1 310 / 161009.6 25.6
2019-Dec-04 07:00N 30°48' W 079°30'1212.0 270 / 271009.3 26.2
2019-Dec-04 06:00N 31°00' W 079°30'1212.0 300 / 151009.5 26.7
2019-Dec-04 05:00N 31°12' W 079°30'6 6.0 270 / 211009.8 26.4
2019-Dec-04 04:00N 31°18' W 079°30'1212.0 290 / 231010.6 26.4
2019-Dec-04 03:00N 31°30' W 079°30'1212.0 300 / 151010.7 26.1
2019-Dec-04 02:00N 31°42' W 079°30'1313.0 300 / 211010.6 25.0
2019-Dec-04 01:00N 31°54' W 079°36'1212.0 300 / 161010.4 23.3
2019-Dec-04 00:00N 32°06' W 079°36'1212.0 280 / 231010.4 21.7
2019-Dec-03 23:00N 32°18' W 079°36'2814.2 270 / 221010.6 20.1
2019-Dec-03 21:00N 32°42' W 079°54'10 0.2 220 / 171009.5
2019-Dec-01 19:54N 32°52' W 079°58'  
Track history (hours):
 
Tides and Currents Weather Stations Pressure Air Temp Water Temp Dewpoint Dewpoint Depression Visibility Wind Speed Wind Dir Waves Ship Positions

Oceanographic research ship Ron Brown (USA)

Detailed information on ship capabilities available from University of Delaware's Ocean Information Center.

Owner: UNIVERSITY OF SOUTHERN CALIFORNIA, TERMINAL ISLAND, CA. More information available from US FCC via Universal Licensing System and Coast Guard Vessel Documentation Center.

Last reported at 2019-Dec-10 22:00 UTC. Time now 2019-Dec-11 11:07 UTC.
Position N 26°30' W 075°30'.

Type: Ship. MMSI: 368996000.

Wind from 130 at 13 knots

Barometer 1020.8 mb
Water temperature 24.9 ° C

Date/timePositionNaut miles runAvg speedWind from/ knotsBaromVisibWave heightAir tempDewpointWater temp
2019-Dec-10 22:00N 26°30' W 075°30'0 0.0 130 / 131020.8 24.9
2019-Dec-10 20:00N 26°30' W 075°30'0 0.0 130 / 171020.6 25.0
2019-Dec-10 19:00N 26°30' W 075°30'5 5.4 130 / 151020.6 25.1
2019-Dec-10 18:00N 26°30' W 075°36'5 5.4 140 / 181020.7 25.1
2019-Dec-10 17:00N 26°30' W 075°42'0 0.0 130 / 161021.6 25.2
2019-Dec-10 16:00N 26°30' W 075°42'0 0.0 130 / 131022.4 25.2
2019-Dec-10 14:00N 26°30' W 075°42'5 5.4 130 / 141022.7 25.1
2019-Dec-10 13:00N 26°30' W 075°48'5 5.4 130 / 201021.7 24.9
2019-Dec-10 12:00N 26°30' W 075°54'0 0.0 120 / 181021.5 24.9
2019-Dec-10 11:00N 26°30' W 075°54'0 0.0 120 / 161020.9 24.9
2019-Dec-10 10:00N 26°30' W 075°54'11 5.4 150 / 171020.5 24.9
2019-Dec-10 08:00N 26°30' W 076°06'0 0.0 110 / 91020.6 24.7
2019-Dec-10 07:00N 26°30' W 076°06'0 0.0 130 / 121021.1 24.7
2019-Dec-10 06:00N 26°30' W 076°06'0 0.0 130 / 121021.2 24.7
2019-Dec-10 05:00N 26°30' W 076°06'0 0.0 130 / 131021.4 24.7
2019-Dec-10 04:00N 26°30' W 076°06'0 0.0 130 / 151021.8 24.8
2019-Dec-10 03:00N 26°30' W 076°06'0 0.0 140 / 151021.8 24.7
2019-Dec-10 02:00N 26°30' W 076°06'0 0.0 130 / 141021.6 24.8
2019-Dec-10 01:00N 26°30' W 076°06'0 0.0 130 / 151021.2 24.7
2019-Dec-10 00:00N 26°30' W 076°06'0 0.0 140 / 151020.8 24.8
2019-Dec-09 23:00N 26°30' W 076°06'5 5.4 140 / 191020.1 24.8
2019-Dec-09 22:00N 26°30' W 076°12'0 0.0 150 / 111020.0 24.8
2019-Dec-09 21:00N 26°30' W 076°12'0 0.0 140 / 111019.4 24.9
2019-Dec-09 20:00N 26°30' W 076°12'0 0.0 140 / 151019.5 24.9
2019-Dec-09 19:00N 26°30' W 076°12'0 0.0 140 / 181019.6 24.9
2019-Dec-09 18:00N 26°30' W 076°12'1110.7 140 / 171019.8 24.9
2019-Dec-09 17:00N 26°30' W 076°24'5 5.4 140 / 161020.6 25.2
2019-Dec-09 16:00N 26°30' W 076°18'0 0.0 150 / 141021.8 25.2
2019-Dec-09 15:00N 26°30' W 076°18'0 0.0 150 / 151022.0 25.1
2019-Dec-09 14:00N 26°30' W 076°18'5 5.4 140 / 101022.0 25.1
2019-Dec-09 13:00N 26°30' W 076°24'5 5.4 140 / 181021.4 25.1
2019-Dec-09 12:00N 26°30' W 076°30'0 0.0 140 / 121021.0 25.1
2019-Dec-09 11:00N 26°30' W 076°30'0 0.0 140 / 121020.3 25.1
2019-Dec-09 10:00N 26°30' W 076°30'0 0.0 120 / 141019.7 25.1
2019-Dec-09 09:00N 26°30' W 076°30'0 0.0 110 / 71019.9 25.0
2019-Dec-09 08:00N 26°30' W 076°30'0 0.0 120 / 111019.8 25.0
2019-Dec-09 07:00N 26°30' W 076°30'0 0.0 130 / 111020.1 25.0
2019-Dec-09 06:00N 26°30' W 076°30'0 0.0 140 / 101020.4 25.0
2019-Dec-09 05:00N 26°30' W 076°30'0 0.0 130 / 131020.8 25.1
2019-Dec-09 04:00N 26°30' W 076°30'0 0.0 150 / 51021.3 25.2
2019-Dec-09 03:00N 26°30' W 076°30'0 0.0 120 / 111021.4 25.2
2019-Dec-09 02:00N 26°30' W 076°30'0 0.0 120 / 131021.2 25.2
2019-Dec-09 01:00N 26°30' W 076°30'5 5.4 100 / 111021.3 25.2
2019-Dec-09 00:00N 26°30' W 076°36'1110.7 100 / 131020.8 25.1
2019-Dec-08 23:00N 26°30' W 076°48'0 0.0 100 / 121020.7 25.3
2019-Dec-08 22:00N 26°30' W 076°48'0 0.0 110 / 131020.3 25.3
2019-Dec-08 21:00N 26°30' W 076°48'0 0.0 080 / 131020.1 25.4
2019-Dec-08 20:00N 26°30' W 076°48'0 0.0 060 / 101019.8 25.4
2019-Dec-08 19:00N 26°30' W 076°48'5 5.4 060 / 111019.7 25.3
2019-Dec-08 18:00N 26°30' W 076°42'5 5.4 040 / 161020.0 25.3
2019-Dec-08 17:00N 26°30' W 076°36'0 0.0 050 / 141020.6 25.3
2019-Dec-08 16:00N 26°30' W 076°36'0 0.0 050 / 161021.4 25.3
2019-Dec-08 15:00N 26°30' W 076°36'0 0.0 040 / 151022.0 25.3
2019-Dec-08 13:00N 26°30' W 076°36'5 5.4 030 / 141021.2 25.2
2019-Dec-08 12:00N 26°30' W 076°42'0 0.0 040 / 131020.9 25.2
2019-Dec-08 11:00N 26°30' W 076°42'0 0.0 050 / 121020.4 25.2
2019-Dec-08 10:00N 26°30' W 076°42'0 0.0 060 / 131019.8 25.3
2019-Dec-08 09:00N 26°30' W 076°42'0 0.0 030 / 131019.6 25.3
2019-Dec-08 08:00N 26°30' W 076°42'0 0.0 050 / 151019.6 25.3
2019-Dec-08 07:00N 26°30' W 076°42'0 0.0 050 / 131019.8 25.3
2019-Dec-08 06:00N 26°30' W 076°42'0 0.0 040 / 141019.9 25.3
2019-Dec-08 05:00N 26°30' W 076°42'0 0.0 050 / 191019.9 25.3
2019-Dec-08 04:00N 26°30' W 076°42'0 0.0 040 / 161020.2 25.3
2019-Dec-08 03:00N 26°30' W 076°42'0 0.0 030 / 71020.5 25.3
2019-Dec-08 02:00N 26°30' W 076°42'0 0.0 030 / 111020.4 25.4
2019-Dec-08 01:00N 26°30' W 076°42'0 0.0 030 / 71020.4 25.4
2019-Dec-08 00:00N 26°30' W 076°42'0 0.0 010 / 101020.2 25.4
2019-Dec-07 23:00N 26°30' W 076°42'5 5.4 350 / 81019.8 25.5
2019-Dec-07 22:00N 26°30' W 076°48'0 0.0 020 / 111019.3 25.8
2019-Dec-07 21:00N 26°30' W 076°48'0 0.0 360 / 101019.0 25.8
2019-Dec-07 20:00N 26°30' W 076°48'0 0.0 300 / 81019.0 25.9
2019-Dec-07 19:00N 26°30' W 076°48'0 0.0 270 / 101019.0 23.1
2019-Dec-07 18:00N 26°30' W 076°48'0 0.0 280 / 101019.2 25.9
2019-Dec-07 17:00N 26°30' W 076°48'0 0.0 290 / 91019.8 25.8
2019-Dec-07 16:00N 26°30' W 076°48'5 5.4 310 / 81020.6 25.8
2019-Dec-07 15:00N 26°30' W 076°54'0 0.0 300 / 91021.3 25.8
2019-Dec-07 14:00N 26°30' W 076°54'1212.0 280 / 91021.4 25.8
2019-Dec-07 13:00N 26°18' W 076°54'8 8.1 330 / 81020.6 25.7
2019-Dec-07 12:00N 26°12' W 077°00'1313.2 1020.2 25.8
2019-Dec-07 11:00N 26°00' W 077°06'1313.2 320 / 41019.7 25.9
2019-Dec-07 10:00N 25°48' W 077°12'1212.4 350 / 61019.4 25.8
2019-Dec-07 09:00N 25°54' W 077°24'1212.3 020 / 51019.2 26.3
2019-Dec-07 08:00N 26°00' W 077°36'1212.3 340 / 21019.2 26.2
2019-Dec-07 07:00N 26°06' W 077°48'1110.8 280 / 31019.7 25.9
2019-Dec-07 06:00N 26°06' W 078°00'1212.3 240 / 21020.2 26.1
2019-Dec-07 05:00N 26°12' W 078°12'1212.3 280 / 31021.1 26.1
2019-Dec-07 04:00N 26°18' W 078°24'1616.1 230 / 31021.7 26.2
2019-Dec-07 03:00N 26°30' W 078°36'8 8.1 1021.7 26.3
2019-Dec-07 02:00N 26°24' W 078°42'0 0.0 350 / 41021.6 26.3
2019-Dec-07 01:00N 26°24' W 078°42'6 6.0 240 / 21021.5 26.3
2019-Dec-07 00:00N 26°18' W 078°42'8 8.1 270 / 31021.4 26.4
2019-Dec-06 23:00N 26°12' W 078°48'0 0.0 160 / 61021.0 26.6
2019-Dec-06 22:00N 26°12' W 078°48'0 0.0 140 / 61020.6 27.0
2019-Dec-06 21:00N 26°12' W 078°48'6 6.0 150 / 61020.2 27.0
2019-Dec-06 20:00N 26°06' W 078°48'8 8.1 160 / 91019.8 26.9
2019-Dec-06 19:00N 26°00' W 078°54'1212.3 180 / 101019.4 26.9
2019-Dec-06 18:00N 26°06' W 079°06'8 8.1 150 / 131019.8 27.2
2019-Dec-06 17:00N 26°00' W 079°12'5 5.4 150 / 91021.0 27.3
2019-Dec-06 16:00N 26°00' W 079°18'5 5.4 130 / 91022.0 27.4
2019-Dec-06 15:00N 26°00' W 079°24'0 0.0 100 / 91022.2 27.4
2019-Dec-06 14:00N 26°00' W 079°24'6 5.6 130 / 121021.9 27.4
2019-Dec-06 13:00N 26°03' W 079°29'3200.7
2019-Dec-06 13:00N 26°06' W 079°30'3 6.4 140 / 101021.5 27.4
2019-Dec-06 12:30N 26°03' W 079°29'3 6.3
2019-Dec-06 12:00N 26°00' W 079°30'3439.7 100 / 111021.2 27.4
2019-Dec-06 11:59N 26°03' W 079°29'5 4.8
2019-Dec-06 11:01N 26°03' W 079°34'3185.7
2019-Dec-06 11:00N 26°06' W 079°36'0 0.0 110 / 51020.8 27.5
2019-Dec-06 10:00N 26°06' W 079°36'5 5.4 110 / 71019.6 27.6
2019-Dec-06 09:00N 26°06' W 079°42'5 5.4 090 / 81020.0 27.6
2019-Dec-06 08:00N 26°06' W 079°48'4 3.6 080 / 101020.0 27.4
2019-Dec-06 07:01N 26°03' W 079°46'3191.3
2019-Dec-06 07:00N 26°00' W 079°48'4 8.7 070 / 121020.3 27.4
2019-Dec-06 06:31N 26°03' W 079°51'4 8.1
2019-Dec-06 06:00N 26°00' W 079°54'0 0.0 060 / 101020.4 26.6
2019-Dec-06 05:00N 26°00' W 079°54'5 9.5 340 / 51020.7 27.3
2019-Dec-06 04:30N 26°03' W 079°58'4 6.9
2019-Dec-06 04:00N 26°06' W 080°00'0 0.0 320 / 31021.2 26.7
2019-Dec-06 03:00N 26°06' W 080°00'5 5.4 320 / 121021.1 26.2
2019-Dec-06 02:01N 26°03' W 080°05'3197.0
2019-Dec-06 02:00N 26°00' W 080°06'918.2 330 / 121021.2 26.0
2019-Dec-06 01:30N 26°08' W 080°03'4 8.6
2019-Dec-06 01:00N 26°12' W 080°00'1212.0 350 / 121020.7 26.1
2019-Dec-06 00:00N 26°24' W 080°00'1212.0 340 / 101020.3 26.1
2019-Dec-05 23:00N 26°36' W 080°00'612.9 010 / 101019.8 26.8
2019-Dec-05 22:30N 26°42' W 079°59'611.7
2019-Dec-05 22:00N 26°48' W 080°00'6 6.0 340 / 141019.5 26.2
2019-Dec-05 21:00N 26°54' W 080°00'6 6.0 330 / 111018.9 26.2
2019-Dec-05 20:00N 27°00' W 080°00'1 1.3 330 / 141018.7 25.7
2019-Dec-05 19:30N 26°60' W 080°01'611.6
2019-Dec-05 19:00N 27°00' W 079°54'2 3.8 010 / 131018.3 26.2
2019-Dec-05 18:30N 26°60' W 079°56'2 3.6
2019-Dec-05 18:00N 27°00' W 079°54'2 3.6 340 / 171018.5 26.5
2019-Dec-05 17:31N 26°60' W 079°52'4 7.0
2019-Dec-05 17:00N 27°00' W 079°48'0 0.0 340 / 171019.1 26.7
2019-Dec-05 16:00N 27°00' W 079°48'5 5.3 320 / 91019.7 26.8
2019-Dec-05 15:00N 27°00' W 079°42'0 0.0 320 / 131019.5 26.7
2019-Dec-05 14:00N 27°00' W 079°42'5 5.3 010 / 121019.2 27.2
2019-Dec-05 13:00N 27°00' W 079°36'0 0.0 310 / 61018.2 27.2
2019-Dec-05 12:00N 27°00' W 079°36'5 5.3 340 / 161017.3 27.4
2019-Dec-05 11:00N 27°00' W 079°30'5 5.3 280 / 111016.8 27.3
2019-Dec-05 10:00N 27°00' W 079°24'0 0.0 340 / 241015.8 27.4
2019-Dec-05 09:00N 27°00' W 079°24'5 5.3 250 / 51015.9 27.3
2019-Dec-05 08:00N 27°00' W 079°18'0 0.0 310 / 181015.2 27.4
2019-Dec-05 07:00N 27°00' W 079°18'5 5.3 310 / 151015.0 27.4
2019-Dec-05 06:00N 27°00' W 079°12'6 6.0 290 / 181015.3 27.3
2019-Dec-05 05:00N 27°06' W 079°12'6 6.0 270 / 131015.6 27.4
2019-Dec-05 04:00N 27°12' W 079°12'1313.1 290 / 161015.7 27.4
2019-Dec-05 03:00N 27°24' W 079°18'1212.0 270 / 191015.7 27.3
2019-Dec-05 02:00N 27°36' W 079°18'1212.0 310 / 131015.2 27.0
2019-Dec-05 01:00N 27°48' W 079°18'1212.0 280 / 161014.8 26.9
2019-Dec-05 00:00N 28°00' W 079°18'1212.0 310 / 151014.6 26.7
2019-Dec-04 23:00N 28°12' W 079°18'1212.0 290 / 191014.0 27.0
2019-Dec-04 22:00N 28°24' W 079°18'6 6.0 320 / 131013.4 27.0
2019-Dec-04 21:00N 28°30' W 079°18'0 0.0 260 / 61012.9 27.0
2019-Dec-04 20:00N 28°30' W 079°18'6 6.0 300 / 191012.5 27.1
2019-Dec-04 19:00N 28°36' W 079°18'1212.0 320 / 171012.6 27.1
2019-Dec-04 18:00N 28°48' W 079°18'1212.0 310 / 211012.5 27.2
2019-Dec-04 17:00N 29°00' W 079°18'1212.0 320 / 161013.2 27.3
2019-Dec-04 16:00N 29°12' W 079°18'1313.1 310 / 191013.6 26.7
2019-Dec-04 15:00N 29°24' W 079°24'6 6.0 320 / 141013.3 26.0
2019-Dec-04 14:00N 29°30' W 079°24'6 6.0 290 / 221012.6 26.2
2019-Dec-04 13:00N 29°36' W 079°24'1212.0 340 / 221012.4 26.7
2019-Dec-04 12:00N 29°48' W 079°24'1212.0 310 / 201011.7 26.9
2019-Dec-04 11:00N 30°00' W 079°24'1212.0 290 / 201010.5 26.8
2019-Dec-04 10:00N 30°12' W 079°24'1212.0 280 / 231009.7 26.5
2019-Dec-04 09:00N 30°24' W 079°24'1212.0 320 / 161009.6 26.1
2019-Dec-04 08:00N 30°36' W 079°24'1313.1 310 / 161009.6 25.6
2019-Dec-04 07:00N 30°48' W 079°30'1212.0 270 / 271009.3 26.2
2019-Dec-04 06:00N 31°00' W 079°30'1212.0 300 / 151009.5 26.7
2019-Dec-04 05:00N 31°12' W 079°30'6 6.0 270 / 211009.8 26.4
2019-Dec-04 04:00N 31°18' W 079°30'1212.0 290 / 231010.6 26.4
2019-Dec-04 03:00N 31°30' W 079°30'1212.0 300 / 151010.7 26.1
2019-Dec-04 02:00N 31°42' W 079°30'1313.0 300 / 211010.6 25.0
2019-Dec-04 01:00N 31°54' W 079°36'1212.0 300 / 161010.4 23.3
2019-Dec-04 00:00N 32°06' W 079°36'1212.0 280 / 231010.4 21.7
2019-Dec-03 23:00N 32°18' W 079°36'2814.2 270 / 221010.6 20.1
2019-Dec-03 21:00N 32°42' W 079°54'10 0.2 220 / 171009.5
2019-Dec-01 19:54N 32°52' W 079°58'  

Dump ship's entire track history